createdAt,value
2017-08-18T00:02:03.560Z,6.60
2017-08-18T00:04:31.717Z,5.17
2017-08-18T00:06:59.833Z,6.03
2017-08-18T00:09:27.953Z,6.50
2017-08-18T00:11:56.883Z,6.47
2017-08-18T00:14:25.012Z,6.70
2017-08-18T00:16:53.909Z,4.87
2017-08-18T00:19:22.061Z,4.93
2017-08-18T00:21:50.952Z,5.87
2017-08-18T00:24:19.842Z,7.07
2017-08-18T00:26:48.771Z,5.33
2017-08-18T00:29:16.902Z,4.97
2017-08-18T00:31:45.817Z,6.20
2017-08-18T00:34:13.954Z,5.90
2017-08-18T00:36:42.114Z,5.87
2017-08-18T00:39:10.250Z,6.03
2017-08-18T00:41:38.382Z,4.90
2017-08-18T00:44:07.302Z,4.53
2017-08-18T00:46:35.417Z,5.80
2017-08-18T00:49:03.567Z,6.80
2017-08-18T00:51:31.696Z,5.20
2017-08-18T00:53:59.813Z,4.90
2017-08-18T00:56:27.962Z,6.23
2017-08-18T00:58:56.104Z,6.60
2017-08-18T01:01:25.001Z,5.67
2017-08-18T01:03:53.152Z,5.40
2017-08-18T01:06:22.053Z,6.07
2017-08-18T01:08:50.993Z,6.77
2017-08-18T01:11:19.127Z,5.80
2017-08-18T01:13:47.286Z,6.20
2017-08-18T01:16:16.187Z,5.73
2017-08-18T01:18:44.328Z,6.23
2017-08-18T01:21:13.245Z,5.20
2017-08-18T01:23:41.366Z,5.57
2017-08-18T01:26:09.489Z,6.93
2017-08-18T01:28:37.641Z,5.97
2017-08-18T01:31:06.564Z,6.37
2017-08-18T01:36:13.610Z,5.40
2017-08-18T01:38:41.759Z,5.07
2017-08-18T01:41:09.919Z,6.43
2017-08-18T01:43:38.046Z,5.10
2017-08-18T01:46:06.961Z,6.60
2017-08-18T01:48:35.099Z,5.37
2017-08-18T01:51:04.003Z,6.57
2017-08-18T01:53:32.148Z,5.13
2017-08-18T01:56:00.284Z,5.60
2017-08-18T01:58:28.450Z,5.90
2017-08-18T02:00:56.665Z,5.23
2017-08-18T02:03:24.794Z,5.27
2017-08-18T02:05:52.952Z,5.60
2017-08-18T02:08:21.093Z,5.17
2017-08-18T02:10:49.990Z,4.90
2017-08-18T02:13:18.154Z,5.10
2017-08-18T02:15:47.055Z,6.20
2017-08-18T02:18:15.550Z,5.70
2017-08-18T02:20:43.699Z,5.60
2017-08-18T02:23:12.585Z,4.90
2017-08-18T02:25:41.514Z,5.50
2017-08-18T02:28:09.642Z,5.07
2017-08-18T02:30:38.524Z,5.53
2017-08-18T02:33:07.463Z,6.47
2017-08-18T02:35:35.589Z,6.83
2017-08-18T02:38:04.518Z,5.20
2017-08-18T02:40:32.650Z,6.00
2017-08-18T02:43:01.550Z,5.90
2017-08-18T02:45:29.716Z,5.80
2017-08-18T02:47:58.614Z,6.27
2017-08-18T02:50:26.737Z,6.17
2017-08-18T02:52:54.902Z,4.97
2017-08-18T02:55:23.031Z,7.10
2017-08-18T02:57:51.188Z,5.10
2017-08-18T03:00:20.072Z,5.53
2017-08-18T03:02:48.970Z,5.37
2017-08-18T03:05:17.899Z,5.43
2017-08-18T03:07:46.035Z,5.40
2017-08-18T03:10:14.198Z,5.00
2017-08-18T03:12:43.146Z,5.60
2017-08-18T03:15:11.260Z,6.30
2017-08-18T03:17:40.185Z,5.13
2017-08-18T03:20:08.305Z,5.53
2017-08-18T03:22:36.470Z,6.27
2017-08-18T03:25:04.590Z,5.47
2017-08-18T03:27:32.742Z,5.40
2017-08-18T03:30:00.864Z,4.80
2017-08-18T03:32:28.994Z,6.20
2017-08-18T03:34:57.163Z,6.37
2017-08-18T03:37:25.286Z,4.97
2017-08-18T03:39:53.418Z,6.07
2017-08-18T03:42:21.594Z,6.40
2017-08-18T03:44:49.714Z,5.53
2017-08-18T03:47:17.875Z,5.80
2017-08-18T03:49:46.007Z,6.03
2017-08-18T03:52:14.166Z,5.10
2017-08-18T03:54:42.331Z,7.27
2017-08-18T03:57:10.466Z,6.70
2017-08-18T03:59:38.644Z,6.30
2017-08-18T04:02:06.779Z,4.50
2017-08-18T04:04:34.919Z,5.80
2017-08-18T04:07:03.069Z,5.97
2017-08-18T04:09:31.961Z,6.50
2017-08-18T04:12:00.121Z,6.60
2017-08-18T04:14:28.245Z,5.20
2017-08-18T04:16:56.378Z,5.10
2017-08-18T04:19:25.312Z,6.07
2017-08-18T04:21:53.437Z,5.30
2017-08-18T04:24:22.364Z,5.47
2017-08-18T04:26:50.483Z,4.70
2017-08-18T04:29:18.622Z,5.53
2017-08-18T04:31:46.794Z,5.77
2017-08-18T04:34:14.923Z,6.53
2017-08-18T04:36:43.059Z,5.80
2017-08-18T04:39:11.208Z,5.77
2017-08-18T04:41:39.355Z,5.57
2017-08-18T04:44:07.524Z,6.23
2017-08-18T04:46:35.650Z,4.43
2017-08-18T04:49:03.812Z,5.60
2017-08-18T04:51:31.943Z,6.33
2017-08-18T04:54:00.079Z,7.27
2017-08-18T04:56:29.019Z,7.13
2017-08-18T04:58:57.155Z,7.80
2017-08-18T05:02:12.853Z,6.83
2017-08-18T05:04:40.976Z,6.77
2017-08-18T05:07:09.172Z,6.33
2017-08-18T05:09:38.082Z,6.90
2017-08-18T05:12:06.223Z,5.30
2017-08-18T05:14:35.161Z,6.40
2017-08-18T05:17:03.307Z,6.00
2017-08-18T05:19:31.481Z,5.17
2017-08-18T05:21:59.621Z,4.33
2017-08-18T05:24:27.799Z,5.40
2017-08-18T05:26:56.716Z,4.93
2017-08-18T05:29:24.849Z,4.30
2017-08-18T05:31:53.013Z,6.73
2017-08-18T05:34:21.167Z,6.57
2017-08-18T05:36:49.302Z,7.07
2017-08-18T05:39:17.473Z,6.70
2017-08-18T05:41:45.619Z,4.97
2017-08-18T05:44:14.512Z,7.47
2017-08-18T05:46:43.462Z,7.20
2017-08-18T05:49:11.589Z,7.77
2017-08-18T05:51:39.732Z,5.90
2017-08-18T05:54:07.910Z,5.57
2017-08-18T05:56:36.824Z,7.03
2017-08-18T05:59:04.984Z,5.90
2017-08-18T06:01:33.122Z,5.47
2017-08-18T06:04:01.295Z,6.70
2017-08-18T06:06:29.452Z,7.00
2017-08-18T06:08:57.595Z,5.80
2017-08-18T06:11:25.775Z,7.47
2017-08-18T06:13:53.899Z,5.57
2017-08-18T06:16:22.835Z,7.23
2017-08-18T06:18:50.973Z,5.97
2017-08-18T06:21:19.922Z,5.63
2017-08-18T06:23:48.060Z,6.30
2017-08-18T06:26:16.193Z,6.40
2017-08-18T06:28:44.361Z,5.57
2017-08-18T06:31:12.484Z,5.33
2017-08-18T06:33:40.656Z,5.03
2017-08-18T06:36:08.789Z,5.50
2017-08-18T06:38:37.698Z,4.00
2017-08-18T06:41:05.891Z,4.77
2017-08-18T06:43:34.017Z,6.27
2017-08-18T06:46:02.145Z,5.93
2017-08-18T06:48:30.323Z,5.53
2017-08-18T06:50:58.446Z,5.73
2017-08-18T06:53:26.573Z,5.43
2017-08-18T06:55:54.749Z,5.30
2017-08-18T06:58:22.896Z,4.60
2017-08-18T07:00:51.044Z,6.10
2017-08-18T07:03:19.231Z,5.23
2017-08-18T07:05:47.365Z,5.17
2017-08-18T07:08:16.277Z,4.10
2017-08-18T07:10:44.448Z,5.20
2017-08-18T07:13:12.691Z,4.17
2017-08-18T07:15:41.595Z,4.70
2017-08-18T07:18:10.517Z,4.50
2017-08-18T07:20:38.653Z,5.80
2017-08-18T07:23:07.588Z,4.87
2017-08-18T07:25:35.726Z,5.00
2017-08-18T07:28:03.867Z,5.03
2017-08-18T07:30:32.017Z,4.67
2017-08-18T07:33:00.163Z,3.93
2017-08-18T07:35:28.293Z,4.83
2017-08-18T07:37:56.474Z,4.37
2017-08-18T07:40:24.611Z,4.50
2017-08-18T07:42:52.789Z,5.40
2017-08-18T07:45:20.938Z,4.90
2017-08-18T07:47:49.089Z,6.30
2017-08-18T07:50:17.279Z,5.93
2017-08-18T07:52:45.427Z,4.23
2017-08-18T07:55:13.589Z,4.43
2017-08-18T07:57:41.727Z,4.73
2017-08-18T08:00:09.900Z,4.27
2017-08-18T08:02:38.828Z,4.50
2017-08-18T08:05:06.960Z,3.60
2017-08-18T08:07:35.119Z,4.93
2017-08-18T08:10:03.266Z,5.27
2017-08-18T08:12:31.393Z,4.63
2017-08-18T08:14:59.549Z,5.20
2017-08-18T08:17:28.471Z,4.40
2017-08-18T08:19:56.649Z,4.20
2017-08-18T08:22:24.783Z,4.70
2017-08-18T08:24:53.672Z,4.50
2017-08-18T08:27:22.611Z,5.80
2017-08-18T08:29:50.737Z,4.97
2017-08-18T08:32:19.652Z,4.50
2017-08-18T08:34:47.824Z,4.30
2017-08-18T08:37:15.944Z,4.80
2017-08-18T08:39:44.106Z,4.83
2017-08-18T08:42:12.239Z,5.53
2017-08-18T08:44:40.415Z,4.43
2017-08-18T08:47:08.554Z,5.90
2017-08-18T08:49:37.466Z,5.63
2017-08-18T08:52:05.643Z,4.60
2017-08-18T08:54:33.774Z,3.90
2017-08-18T08:57:01.919Z,4.43
2017-08-18T08:59:30.088Z,4.50
2017-08-18T09:01:58.233Z,5.27
2017-08-18T09:04:26.400Z,4.77
2017-08-18T09:06:54.528Z,4.73
2017-08-18T09:09:22.708Z,4.63
2017-08-18T09:11:51.610Z,4.00
2017-08-18T09:14:20.510Z,5.10
2017-08-18T09:16:48.677Z,4.70
2017-08-18T09:19:16.814Z,5.07
2017-08-18T09:21:44.954Z,5.03
2017-08-18T09:24:13.131Z,4.90
2017-08-18T09:26:41.271Z,5.20
2017-08-18T09:29:09.400Z,4.20
2017-08-18T09:31:37.558Z,5.07
2017-08-18T09:34:05.695Z,4.33
2017-08-18T09:36:33.872Z,4.60
2017-08-18T09:39:01.999Z,4.50
2017-08-18T09:41:30.137Z,3.57
2017-08-18T09:43:58.285Z,5.20
2017-08-18T09:46:26.425Z,5.60
2017-08-18T09:49:12.470Z,4.40
2017-08-18T09:55:09.435Z,4.80
2017-08-18T10:00:47.325Z,5.90
2017-08-18T10:03:15.461Z,5.20
2017-08-18T10:05:44.422Z,5.80
2017-08-18T10:08:12.572Z,5.50
2017-08-18T10:10:40.719Z,5.80
2017-08-18T10:13:08.878Z,4.43
2017-08-18T10:15:37.773Z,5.50
2017-08-18T10:18:05.958Z,4.50
2017-08-18T10:20:34.101Z,5.00
2017-08-18T10:23:02.238Z,4.20
2017-08-18T10:25:30.401Z,4.87
2017-08-18T10:27:58.533Z,4.40
2017-08-18T10:30:33.965Z,4.70
2017-08-18T10:33:03.593Z,4.70
2017-08-18T10:35:31.758Z,4.77
2017-08-18T10:37:59.900Z,4.90
2017-08-18T10:40:28.043Z,4.77
2017-08-18T10:42:56.204Z,5.17
2017-08-18T10:45:24.344Z,5.00
2017-08-18T10:47:52.502Z,4.77
2017-08-18T10:50:21.408Z,5.17
2017-08-18T10:52:49.585Z,5.17
2017-08-18T10:55:17.719Z,4.97
2017-08-18T10:57:45.851Z,3.77
2017-08-18T11:00:14.036Z,4.60
2017-08-18T11:02:42.160Z,4.43
2017-08-18T11:05:10.354Z,4.40
2017-08-18T11:07:38.482Z,4.60
2017-08-18T11:10:07.396Z,4.60
2017-08-18T11:12:35.566Z,4.30
2017-08-18T11:15:03.699Z,4.40
2017-08-18T11:17:31.874Z,3.83
2017-08-18T11:20:00.023Z,4.50
2017-08-18T11:22:28.215Z,4.60
2017-08-18T11:24:56.346Z,3.90
2017-08-18T11:27:24.483Z,4.03
2017-08-18T11:29:52.655Z,3.43
2017-08-18T11:32:21.549Z,4.20
2017-08-18T11:34:49.716Z,4.40
2017-08-18T11:37:17.852Z,4.90
2017-08-18T11:39:46.034Z,4.30
2017-08-18T11:42:14.196Z,3.73
2017-08-18T11:44:42.367Z,4.70
2017-08-18T11:47:10.501Z,4.90
2017-08-18T11:49:38.635Z,5.37
2017-08-18T11:52:06.793Z,5.87
2017-08-18T11:54:34.913Z,5.27
2017-08-18T11:57:03.105Z,3.67
2017-08-18T11:59:31.261Z,5.07
2017-08-18T12:01:59.405Z,4.90
2017-08-18T12:04:27.587Z,5.37
2017-08-18T12:06:55.715Z,4.40
2017-08-18T12:09:23.859Z,4.50
2017-08-18T12:11:52.035Z,4.13
2017-08-18T12:14:20.192Z,4.10
2017-08-18T12:16:48.321Z,3.53
2017-08-18T12:19:17.254Z,3.83
2017-08-18T12:21:45.385Z,4.77
2017-08-18T12:24:13.531Z,5.57
2017-08-18T12:26:41.694Z,5.80
2017-08-18T12:29:09.832Z,4.87
2017-08-18T12:31:38.016Z,4.37
2017-08-18T12:34:06.240Z,4.17
2017-08-18T12:36:35.162Z,5.07
2017-08-18T12:39:03.342Z,4.93
2017-08-18T12:41:31.487Z,4.50
2017-08-18T12:44:00.421Z,4.10
2017-08-18T12:46:28.567Z,3.60
2017-08-18T12:48:56.742Z,4.53
2017-08-18T12:51:24.894Z,5.33
2017-08-18T12:53:53.037Z,4.80
2017-08-18T12:56:21.220Z,4.80
2017-08-18T12:58:50.128Z,4.77
2017-08-18T13:01:18.328Z,4.83
2017-08-18T13:03:46.470Z,5.10
2017-08-18T13:06:14.694Z,4.70
2017-08-18T13:08:42.867Z,3.57
2017-08-18T13:11:10.989Z,4.43
2017-08-18T13:13:39.158Z,4.10
2017-08-18T13:16:07.278Z,4.60
2017-08-18T13:18:35.402Z,4.87
2017-08-18T13:21:03.571Z,5.27
2017-08-18T13:23:31.694Z,5.23
2017-08-18T13:25:59.818Z,3.50
2017-08-18T13:28:27.985Z,3.70
2017-08-18T13:30:57.663Z,3.87
2017-08-18T13:33:25.800Z,4.07
2017-08-18T13:35:53.970Z,3.00
2017-08-18T13:38:22.103Z,5.10
2017-08-18T13:40:50.238Z,3.20
2017-08-18T13:43:18.407Z,3.30
2017-08-18T13:45:46.537Z,4.73
2017-08-18T13:48:14.666Z,4.20
2017-08-18T13:50:42.822Z,3.70
2017-08-18T13:53:10.962Z,3.60
2017-08-18T13:55:39.144Z,4.17
2017-08-18T13:58:07.285Z,3.70
2017-08-18T14:00:35.455Z,3.40
2017-08-18T14:03:03.583Z,4.90
2017-08-18T14:05:31.719Z,4.73
2017-08-18T14:07:59.900Z,4.10
2017-08-18T14:10:28.038Z,5.10
2017-08-18T14:12:56.186Z,4.27
2017-08-18T14:15:24.353Z,4.27
2017-08-18T14:17:52.490Z,4.30
2017-08-18T14:20:20.658Z,3.80
2017-08-18T14:22:48.795Z,4.93
2017-08-18T14:25:22.438Z,3.63
2017-08-18T14:27:50.650Z,4.83
2017-08-18T14:30:19.551Z,5.23
2017-08-18T14:32:47.723Z,3.53
2017-08-18T14:35:15.862Z,2.97
2017-08-18T14:37:44.000Z,4.40
2017-08-18T14:40:12.169Z,3.10
2017-08-18T14:42:40.295Z,3.80
2017-08-18T14:45:09.240Z,4.27
2017-08-18T14:47:37.373Z,4.30
2017-08-18T14:50:05.494Z,4.10
2017-08-18T14:52:33.648Z,4.10
2017-08-18T14:55:01.783Z,4.13
2017-08-18T14:57:30.716Z,3.57
2017-08-18T14:59:58.854Z,5.20
2017-08-18T15:02:26.978Z,4.57
2017-08-18T15:04:55.159Z,4.37
2017-08-18T15:07:23.302Z,2.93
2017-08-18T15:09:51.447Z,5.60
2017-08-18T15:12:19.610Z,4.17
2017-08-18T15:14:47.739Z,3.10
2017-08-18T15:17:15.875Z,3.30
2017-08-18T15:19:44.044Z,4.83
2017-08-18T15:22:12.178Z,4.10
2017-08-18T15:24:41.124Z,4.30
2017-08-18T15:27:09.277Z,4.37
2017-08-18T15:29:37.445Z,4.83
2017-08-18T15:32:05.574Z,3.77
2017-08-18T15:34:34.493Z,5.23
2017-08-18T15:37:02.669Z,3.90
2017-08-18T15:39:30.815Z,4.37
2017-08-18T15:41:59.714Z,4.63
2017-08-18T15:44:28.649Z,5.13
2017-08-18T15:46:56.781Z,3.87
2017-08-18T15:49:24.922Z,4.20
2017-08-18T15:51:53.076Z,4.73
2017-08-18T15:54:21.218Z,4.50
2017-08-18T15:56:49.359Z,4.00
2017-08-18T15:59:17.515Z,4.90
2017-08-18T16:01:46.435Z,4.67
2017-08-18T16:04:14.604Z,4.33
2017-08-18T16:06:42.766Z,4.10
2017-08-18T16:09:10.941Z,4.67
2017-08-18T16:11:39.103Z,4.13
2017-08-18T16:14:08.064Z,4.70
2017-08-18T16:16:36.258Z,4.87
2017-08-18T16:19:05.157Z,3.57
2017-08-18T16:21:34.080Z,4.87
2017-08-18T16:24:02.225Z,3.90
2017-08-18T16:26:30.355Z,4.53
2017-08-18T16:28:58.524Z,4.10
2017-08-18T16:31:26.659Z,4.47
2017-08-18T16:33:54.826Z,4.37
2017-08-18T16:36:22.977Z,5.30
2017-08-18T16:38:51.124Z,4.57
2017-08-18T16:41:19.294Z,5.63
2017-08-18T16:43:47.442Z,4.80
2017-08-18T16:46:15.606Z,4.80
2017-08-18T16:48:43.738Z,3.43
2017-08-18T16:51:12.687Z,3.70
2017-08-18T16:53:40.832Z,4.40
2017-08-18T16:56:08.970Z,3.93
2017-08-18T16:58:37.901Z,4.70
2017-08-18T17:01:06.035Z,4.13
2017-08-18T17:03:34.213Z,4.37
2017-08-18T17:06:02.359Z,4.60
2017-08-18T17:08:31.285Z,4.27
2017-08-18T17:10:59.423Z,3.70
2017-08-18T17:13:28.357Z,3.77
2017-08-18T17:15:56.492Z,4.23
2017-08-18T17:18:25.390Z,3.40
2017-08-18T17:20:53.568Z,5.50
2017-08-18T17:23:21.711Z,3.77
2017-08-18T17:25:50.611Z,4.20
2017-08-18T17:28:18.788Z,5.20
2017-08-18T17:30:47.690Z,4.80
2017-08-18T17:33:15.856Z,4.40
2017-08-18T17:35:43.995Z,4.27
2017-08-18T17:38:12.122Z,4.50
2017-08-18T17:40:40.296Z,4.30
2017-08-18T17:43:08.435Z,4.73
2017-08-18T17:45:37.372Z,4.53
2017-08-18T17:48:05.509Z,6.07
2017-08-18T17:50:33.651Z,4.93
2017-08-18T17:53:02.597Z,3.60
2017-08-18T17:55:30.729Z,3.50
2017-08-18T17:57:59.639Z,4.33
2017-08-18T18:00:27.799Z,4.20
2017-08-18T18:02:55.936Z,4.03
2017-08-18T18:05:24.128Z,4.70
2017-08-18T18:07:53.027Z,3.73
2017-08-18T18:10:21.162Z,4.23
2017-08-18T18:12:49.318Z,4.30
2017-08-18T18:15:17.451Z,4.27
2017-08-18T18:17:45.620Z,3.90
2017-08-18T18:20:13.760Z,3.60
2017-08-18T18:22:41.925Z,4.03
2017-08-18T18:25:10.060Z,3.77
2017-08-18T18:27:38.203Z,3.60
2017-08-18T18:30:06.374Z,4.23
2017-08-18T18:32:34.509Z,4.30
2017-08-18T18:35:02.636Z,4.67
2017-08-18T18:37:30.801Z,4.63
2017-08-18T18:39:58.933Z,5.30
2017-08-18T18:42:27.094Z,4.90
2017-08-18T18:44:55.232Z,4.80
2017-08-18T18:47:23.363Z,4.73
2017-08-18T18:49:52.293Z,4.37
2017-08-18T18:52:20.436Z,4.13
2017-08-18T18:54:48.582Z,7.73
2017-08-18T18:57:16.742Z,8.50
2017-08-18T18:59:44.885Z,5.30
2017-08-18T19:02:13.015Z,2.93
2017-08-18T19:04:41.179Z,2.80
2017-08-18T19:07:10.071Z,2.60
2017-08-18T19:09:38.237Z,2.97
2017-08-18T19:12:06.412Z,2.90
2017-08-18T19:14:34.543Z,2.30
2017-08-18T19:17:02.726Z,2.17
2017-08-18T19:19:30.867Z,2.23
2017-08-18T19:21:59.031Z,2.90
2017-08-18T19:24:27.149Z,3.37
2017-08-18T19:26:55.553Z,1.80
2017-08-18T19:29:23.705Z,1.80
2017-08-18T19:31:52.603Z,2.10
2017-08-18T19:34:21.543Z,1.50
2017-08-18T19:36:49.673Z,1.50
2017-08-18T19:39:17.840Z,1.30
2017-08-18T19:41:46.743Z,1.60
2017-08-18T19:44:14.869Z,2.03
2017-08-18T19:46:43.025Z,2.20
2017-08-18T19:49:11.163Z,1.87
2017-08-18T19:51:39.342Z,1.50
2017-08-18T19:54:07.492Z,2.07
2017-08-18T19:56:35.635Z,2.13
2017-08-18T19:59:03.804Z,2.50
2017-08-18T20:01:31.943Z,2.60
2017-08-18T20:04:00.109Z,1.43
2017-08-18T20:06:28.246Z,1.90
2017-08-18T20:08:57.138Z,1.13
2017-08-18T20:11:25.325Z,1.30
2017-08-18T20:13:53.475Z,1.13
2017-08-18T20:16:22.404Z,1.30
2017-08-18T20:18:50.586Z,1.47
2017-08-18T20:21:18.752Z,1.33
2017-08-18T20:23:46.940Z,1.50
2017-08-18T20:26:15.105Z,1.40
2017-08-18T20:28:43.245Z,1.37
2017-08-18T20:31:11.377Z,1.30
2017-08-18T20:33:39.569Z,1.70
2017-08-18T20:36:08.475Z,1.30
2017-08-18T20:38:36.662Z,1.50
2017-08-18T20:41:04.803Z,1.00
2017-08-18T20:43:33.723Z,1.47
2017-08-18T20:46:01.866Z,2.20
2017-08-18T20:48:30.012Z,1.50
2017-08-18T20:50:58.653Z,1.67
2017-08-18T20:53:26.794Z,1.53
2017-08-18T20:55:54.926Z,2.53
2017-08-18T20:58:23.089Z,2.07
2017-08-18T21:00:51.217Z,1.40
2017-08-18T21:03:19.342Z,1.97
2017-08-18T21:05:47.510Z,1.47
2017-08-18T21:08:15.640Z,2.40
2017-08-18T21:10:43.789Z,1.50
2017-08-18T21:13:12.678Z,1.40
2017-08-18T21:15:40.805Z,1.43
2017-08-18T21:18:08.982Z,1.90
2017-08-18T21:20:37.127Z,1.77
2017-08-18T21:23:05.253Z,1.57
2017-08-18T21:25:34.193Z,1.40
2017-08-18T21:28:02.343Z,1.30
2017-08-18T21:30:30.479Z,1.43
2017-08-18T21:32:58.648Z,1.33
2017-08-18T21:35:26.773Z,1.70
2017-08-18T21:37:54.939Z,2.10
2017-08-18T21:40:23.064Z,1.43
2017-08-18T21:42:51.952Z,1.43
2017-08-18T21:45:20.109Z,1.30
2017-08-18T21:47:48.349Z,1.53
2017-08-18T21:50:16.523Z,1.70
2017-08-18T21:52:44.677Z,1.90
2017-08-18T21:55:12.843Z,1.37
2017-08-18T21:57:40.988Z,1.30
2017-08-18T22:00:09.919Z,1.60
2017-08-18T22:02:38.042Z,1.70
2017-08-18T22:05:06.200Z,1.70
2017-08-18T22:07:34.339Z,1.30
2017-08-18T22:10:02.495Z,1.40
2017-08-18T22:12:30.685Z,1.50
2017-08-18T22:14:58.833Z,1.30
2017-08-18T22:17:26.992Z,1.50
2017-08-18T22:19:55.140Z,1.70
2017-08-18T22:22:23.318Z,1.37
2017-08-18T22:24:52.218Z,1.20
2017-08-18T22:27:21.126Z,1.10
2017-08-18T22:29:49.305Z,1.20
2017-08-18T22:32:17.451Z,1.50
2017-08-18T22:34:46.380Z,1.40
2017-08-18T22:37:14.545Z,1.30
2017-08-18T22:39:42.685Z,1.23
2017-08-18T22:42:11.614Z,1.10
2017-08-18T22:44:39.748Z,1.57
2017-08-18T22:47:08.673Z,1.03
2017-08-18T22:49:36.793Z,1.57
2017-08-18T22:52:04.932Z,1.60
2017-08-18T22:54:33.099Z,1.40
2017-08-18T22:57:01.233Z,1.70
2017-08-18T22:59:29.394Z,1.30
2017-08-18T23:01:58.299Z,1.30
2017-08-18T23:04:26.435Z,1.57
2017-08-18T23:06:54.614Z,1.20
2017-08-18T23:09:22.747Z,1.10
2017-08-18T23:11:51.062Z,1.77
2017-08-18T23:14:19.196Z,1.47
2017-08-18T23:16:47.333Z,1.43
2017-08-18T23:19:15.485Z,1.50
2017-08-18T23:21:44.382Z,1.50
2017-08-18T23:24:12.524Z,1.60
2017-08-18T23:26:40.695Z,1.60
2017-08-18T23:29:08.824Z,1.80
2017-08-18T23:31:36.992Z,1.40
2017-08-18T23:34:05.114Z,1.30
2017-08-18T23:36:33.269Z,1.77
2017-08-18T23:39:01.410Z,1.30
2017-08-18T23:41:29.578Z,1.30
2017-08-18T23:43:57.713Z,1.17
2017-08-18T23:46:26.634Z,1.10
2017-08-18T23:48:54.817Z,1.00
2017-08-18T23:51:22.945Z,1.10
2017-08-18T23:53:51.894Z,1.20
2017-08-18T23:56:20.067Z,1.30
2017-08-18T23:58:48.210Z,2.07
